Meteo Giornale » Osservazioni meteo Stati Uniti (USA) » Springfield
ore: 20:56 - Osservazioni Meteo Springfield
Lat. 39° 50' N Lon. 83° 50' W Alt. 321 metri s.l.m.
24 °C
Poco Nuvoloso
Temp. 24 Ore
21 °C
31 °C
Nord
5.5 Km/h
Dew point 23 °C
Umidità 94 %
Visibilità 10 Km
Il sole sorge alle ore 07:02
Il sole tramonta alle ore 20:08
| Data e Ora | Cielo e Fenomeni | T °C | DP °C | Um. % | Pres. hPa | Vis. km | Vento km/h | |
|---|---|---|---|---|---|---|---|---|
| Oggi h: 20:56 | Poco Nuvoloso | 24 | 23 | 94 | 1018 | 10 | N 5.5 | |
| Oggi h: 19:56 | Sereno | 26 | 23 | 83 | 1018 | 10 | N 5.5 | |
| Oggi h: 18:56 | Sereno | 29 | 23 | 70 | 1018 | 10 | N 5.5 | |
| Oggi h: 17:56 | Sereno | 28 | 23 | 74 | 1017 | 10 | N 0 | |
| Oggi h: 16:56 | Sereno | 29 | 22 | 66 | 1018 | 10 | N 5.5 | |
| Oggi h: 15:56 | Sereno | 29 | 21 | 62 | 1019 | 10 | O/SO 11.1 | |
| Oggi h: 14:56 | Sereno | 29 | 23 | 70 | 1019 | 10 | O/SO 9.3 | |
| Oggi h: 13:56 | Sereno | 30 | 23 | 66 | 1020 | 10 | O 16.7 | |
| Oggi h: 12:56 | Sereno | 31 | 22 | 58 | 1020 | 10 | O 27.8 | |
| Oggi h: 11:56 | Sereno | 30 | 22 | 62 | 1020 | 10 | O 22.2 | |
| Oggi h: 10:56 | Sereno | 29 | 22 | 66 | 1020 | 10 | O/SO 14.8 | |
| Oggi h: 09:56 | Sereno | 27 | 21 | 69 | 1020 | 10 | N 7.4 | |
| Oggi h: 08:56 | Sereno | 24 | 20 | 78 | 1020 | 10 | SO 11.1 | |
| Oggi h: 07:56 | Sereno | 22 | 19 | 83 | 1019 | 10 | S/SO 7.4 | |
| Oggi h: 06:56 | Sereno | 22 | 19 | 83 | 1019 | 10 | N 5.5 | |
| Oggi h: 05:56 | Sereno | 22 | 19 | 83 | 1019 | 10 | S/SE 7.4 | |
| Oggi h: 04:56 | Sereno | 21 | 19 | 88 | 1019 | 10 | N 0 | |
| Oggi h: 03:56 | Sereno | 21 | 19 | 88 | 1018 | 10 | SE 7.4 | |
| Oggi h: 02:56 | Sereno | 21 | 19 | 88 | 1019 | 10 | N 0 | |
| Oggi h: 01:56 | Sereno | 21 | 19 | 88 | 1019 | 10 | N 5.5 | |
| Oggi h: 00:56 | Sereno | 21 | 19 | 88 | 1019 | 10 | SE 9.3 | |
| Ieri h: 23:56 | Sereno | 21 | 19 | 88 | 1020 | 11 | N 5.5 | |
| Ieri h: 22:56 | Sereno | 22 | 19 | 83 | 1019 | 10 | N 5.5 | |
| Ieri h: 21:56 | Sereno | 21 | 20 | 94 | 1020 | 10 | N 5.5 | |



